Time;durP1;ratioP1;P1;durP2;ratioP2;P2;SDS_P1;SDS_P2;PMS_P1;PMS_P2;Temp;Humidity;BMP_temperature;BMP_pressure;BME280_temperature;BME280_humidity;BME280_pressure;Samples;Min_cycle;Max_cycle;Signal;HPM_P1;HPM_P2
2022/03/10 00:02:18;;;;;;;24.63;16.63;;;4.10;66.30;;;;;;6116622;23;20710;-71
2022/03/10 00:04:45;;;;;;;21.27;16.20;;;4.10;66.60;;;;;;6110142;23;20190;-72
2022/03/10 00:07:12;;;;;;;21.73;15.93;;;4.10;66.60;;;;;;6116410;23;20215;-71
2022/03/10 00:09:39;;;;;;;24.23;16.20;;;4.10;66.80;;;;;;6113952;23;20693;-71
2022/03/10 00:12:08;;;;;;;26.05;18.40;;;4.10;67.20;;;;;;6097623;23;20205;-71
2022/03/10 00:14:35;;;;;;;23.35;18.10;;;4.00;67.50;;;;;;6101014;23;20703;-72
2022/03/10 00:17:02;;;;;;;24.23;17.35;;;4.00;67.70;;;;;;6103930;23;20219;-72
2022/03/10 00:19:29;;;;;;;25.08;18.02;;;4.00;67.80;;;;;;6097619;23;20196;-71
2022/03/10 00:21:56;;;;;;;24.40;18.00;;;4.00;68.00;;;;;;6113113;23;20241;-71
2022/03/10 00:24:23;;;;;;;22.30;18.33;;;3.90;68.20;;;;;;6100955;23;20206;-71
2022/03/10 00:26:51;;;;;;;26.58;17.48;;;3.90;68.50;;;;;;6115496;23;20215;-72
2022/03/10 00:29:19;;;;;;;22.02;16.45;;;3.80;68.60;;;;;;6117513;23;20221;-71
2022/03/10 00:31:46;;;;;;;22.58;16.30;;;3.80;69.00;;;;;;6094371;23;20196;-71
2022/03/10 00:34:13;;;;;;;24.75;18.13;;;3.80;69.20;;;;;;6110782;23;20194;-71
2022/03/10 00:36:40;;;;;;;22.17;16.50;;;3.70;69.30;;;;;;6097482;23;20214;-71
2022/03/10 00:39:07;;;;;;;24.88;17.35;;;3.70;69.70;;;;;;6117278;23;20190;-72
2022/03/10 00:41:34;;;;;;;23.65;17.23;;;3.70;69.90;;;;;;6115090;23;20223;-71
2022/03/10 00:44:01;;;;;;;25.88;17.83;;;3.60;70.10;;;;;;6114563;23;20188;-72
2022/03/10 00:46:29;;;;;;;24.52;17.30;;;3.60;70.40;;;;;;6110530;23;20300;-72
2022/03/10 00:48:56;;;;;;;24.73;17.35;;;3.50;70.60;;;;;;6116070;23;20191;-73
2022/03/10 00:51:22;;;;;;;25.27;17.33;;;3.50;70.90;;;;;;6104296;23;20198;-72
2022/03/10 00:53:49;;;;;;;24.55;17.42;;;3.40;71.10;;;;;;6113513;23;20187;-72
2022/03/10 00:56:16;;;;;;;21.75;15.95;;;3.40;71.20;;;;;;6105040;23;20215;-71
2022/03/10 00:58:43;;;;;;;22.88;17.45;;;3.30;71.10;;;;;;6117175;23;20282;-72
2022/03/10 01:01:11;;;;;;;23.67;17.88;;;3.30;71.40;;;;;;6118259;23;20273;-72
2022/03/10 01:03:39;;;;;;;25.58;16.83;;;3.20;71.60;;;;;;6104073;23;20246;-72
2022/03/10 01:06:06;;;;;;;23.38;16.77;;;3.20;72.10;;;;;;6100872;23;20204;-72
2022/03/10 01:08:33;;;;;;;24.65;17.88;;;3.10;72.70;;;;;;6115214;23;20243;-72
2022/03/10 01:11:00;;;;;;;24.00;17.48;;;3.10;73.30;;;;;;6107507;23;20191;-72
2022/03/10 01:13:27;;;;;;;26.15;17.70;;;3.00;73.80;;;;;;6119172;23;21006;-71
2022/03/10 01:15:54;;;;;;;25.63;18.88;;;2.90;74.30;;;;;;6119021;23;20687;-72
2022/03/10 01:18:20;;;;;;;23.17;17.77;;;2.90;74.90;;;;;;6105425;23;20199;-72
2022/03/10 01:20:49;;;;;;;24.27;18.83;;;2.80;75.60;;;;;;6114192;23;20316;-72
2022/03/10 01:23:16;;;;;;;26.45;20.38;;;2.80;76.40;;;;;;6100663;23;20248;-72
2022/03/10 01:25:42;;;;;;;27.50;20.42;;;2.80;77.10;;;;;;6113776;23;20215;-72
2022/03/10 01:28:09;;;;;;;26.33;19.33;;;2.80;77.50;;;;;;6112840;23;20189;-72
2022/03/10 01:30:37;;;;;;;24.63;18.77;;;2.70;77.80;;;;;;6120238;23;20200;-71
2022/03/10 01:33:04;;;;;;;27.30;18.35;;;2.70;78.50;;;;;;6115931;23;20217;-72
2022/03/10 01:35:30;;;;;;;25.05;18.80;;;2.60;79.00;;;;;;6116209;23;20213;-72
2022/03/10 01:37:59;;;;;;;27.00;19.13;;;2.60;79.70;;;;;;6114358;23;20272;-71
2022/03/10 01:40:26;;;;;;;27.23;19.42;;;2.50;80.40;;;;;;6103811;23;20244;-72
2022/03/10 01:42:53;;;;;;;30.50;20.23;;;2.50;81.30;;;;;;6117022;23;20620;-72
2022/03/10 01:45:20;;;;;;;30.33;19.17;;;2.40;82.00;;;;;;6096902;23;20551;-72
2022/03/10 01:47:47;;;;;;;23.67;18.35;;;2.40;82.90;;;;;;6113913;23;20198;-72
2022/03/10 01:50:16;;;;;;;28.27;19.38;;;2.30;83.50;;;;;;6107587;23;20242;-71
2022/03/10 01:52:44;;;;;;;25.98;18.60;;;2.30;84.30;;;;;;6111867;23;20198;-71
2022/03/10 01:55:12;;;;;;;26.33;19.08;;;2.20;84.90;;;;;;6099585;23;20292;-71
2022/03/10 01:57:43;;;;;;;23.85;18.10;;;2.20;85.50;;;;;;6115801;23;20197;-72
2022/03/10 02:00:11;;;;;;;28.33;19.70;;;2.20;86.10;;;;;;6109327;23;20201;-71
2022/03/10 02:02:38;;;;;;;30.67;20.08;;;2.20;86.60;;;;;;6112364;23;20594;-72
2022/03/10 02:05:06;;;;;;;28.65;19.63;;;2.20;87.10;;;;;;6101277;23;20325;-71
2022/03/10 02:10:24;;;;;;;25.33;18.85;;;2.10;88.00;;;;;;6026709;23;20212;-71
2022/03/10 02:12:52;;;;;;;27.17;18.75;;;2.10;89.00;;;;;;6118995;23;20190;-71
2022/03/10 02:18:06;;;;;;;28.58;18.95;;;2.10;89.60;;;;;;6118609;23;20730;-72
2022/03/10 02:20:34;;;;;;;25.38;19.42;;;2.30;89.80;;;;;;6107216;23;20221;-71
2022/03/10 02:23:04;;;;;;;27.67;18.48;;;2.20;89.70;;;;;;6108284;23;20668;-72
2022/03/10 02:25:31;;;;;;;23.52;18.50;;;2.20;90.00;;;;;;6099862;23;20221;-71
2022/03/10 02:27:58;;;;;;;25.50;19.83;;;2.30;90.00;;;;;;6093025;23;20284;-72
2022/03/10 02:30:28;;;;;;;30.33;20.13;;;2.30;89.80;;;;;;6105065;23;20649;-71
2022/03/10 02:32:55;;;;;;;28.42;19.60;;;2.40;89.70;;;;;;6110680;23;20200;-71
2022/03/10 02:35:27;;;;;;;25.50;18.67;;;2.40;89.70;;;;;;6101807;23;20218;-71
2022/03/10 02:37:54;;;;;;;26.05;18.67;;;2.40;89.90;;;;;;6113867;23;20218;-72
2022/03/10 02:40:22;;;;;;;24.98;19.75;;;2.40;90.00;;;;;;6116097;23;20189;-71
2022/03/10 02:42:49;;;;;;;24.98;19.92;;;2.30;90.10;;;;;;6117119;23;20200;-71
2022/03/10 02:45:16;;;;;;;23.52;17.75;;;2.30;90.10;;;;;;6112541;23;20292;-71
2022/03/10 02:47:43;;;;;;;25.92;16.95;;;2.30;90.40;;;;;;6103110;23;20283;-72
2022/03/10 02:50:10;;;;;;;23.85;18.23;;;2.30;90.30;;;;;;6119672;23;20212;-72
2022/03/10 02:52:38;;;;;;;25.73;18.40;;;2.30;90.30;;;;;;6115859;23;20204;-71
2022/03/10 02:55:06;;;;;;;24.33;18.50;;;2.30;90.30;;;;;;6111125;23;20226;-72
2022/03/10 02:57:37;;;;;;;26.40;18.17;;;2.30;90.10;;;;;;6113163;23;20197;-73
2022/03/10 03:00:05;;;;;;;22.17;16.70;;;2.30;90.10;;;;;;6113374;23;20199;-71
2022/03/10 03:02:32;;;;;;;24.13;17.38;;;2.20;90.00;;;;;;6098355;23;20212;-71
2022/03/10 03:04:59;;;;;;;25.95;17.67;;;2.20;90.10;;;;;;6114498;23;20341;-71
2022/03/10 03:07:26;;;;;;;23.63;17.15;;;2.20;90.10;;;;;;6111706;23;20887;-71
2022/03/10 03:09:53;;;;;;;22.77;17.23;;;2.20;90.20;;;;;;6118480;23;20194;-72
2022/03/10 03:12:20;;;;;;;25.13;19.42;;;2.20;90.40;;;;;;6108532;23;20238;-71
2022/03/10 03:14:48;;;;;;;26.83;19.02;;;2.20;90.60;;;;;;6092033;23;20190;-71
2022/03/10 03:17:15;;;;;;;25.55;17.55;;;2.20;90.70;;;;;;6108716;23;20195;-71
2022/03/10 03:19:42;;;;;;;24.73;17.90;;;2.10;90.90;;;;;;6094064;23;20481;-71
2022/03/10 03:22:09;;;;;;;23.80;17.75;;;2.10;91.00;;;;;;6113217;23;20222;-71
2022/03/10 03:24:36;;;;;;;25.27;18.70;;;2.00;91.20;;;;;;6113462;23;20250;-72
2022/03/10 03:27:04;;;;;;;26.70;19.20;;;2.00;91.40;;;;;;6106432;23;20198;-71
2022/03/10 03:29:30;;;;;;;27.33;16.95;;;1.90;91.60;;;;;;6112850;23;20270;-71
2022/03/10 03:31:59;;;;;;;26.33;19.08;;;1.90;91.80;;;;;;6119282;23;20543;-71
2022/03/10 03:34:26;;;;;;;25.00;18.00;;;1.90;92.10;;;;;;6116739;23;20649;-71
2022/03/10 03:36:53;;;;;;;24.92;18.45;;;1.80;92.30;;;;;;6107559;23;20707;-71
2022/03/10 03:39:20;;;;;;;26.90;18.08;;;1.70;92.60;;;;;;6115086;23;20198;-71
2022/03/10 03:41:46;;;;;;;28.67;19.33;;;1.70;92.70;;;;;;6117012;23;20220;-71
2022/03/10 03:44:13;;;;;;;25.63;18.73;;;1.60;93.30;;;;;;6118396;23;20188;-72
2022/03/10 03:46:41;;;;;;;28.02;18.98;;;1.60;93.30;;;;;;6108300;23;20209;-71
2022/03/10 03:49:10;;;;;;;25.00;18.27;;;1.50;93.60;;;;;;6114764;23;20196;-71
2022/03/10 03:51:37;;;;;;;24.10;18.25;;;1.50;94.00;;;;;;6111842;23;20209;-71
2022/03/10 03:54:05;;;;;;;27.98;20.27;;;1.40;94.30;;;;;;6094793;23;20272;-72
2022/03/10 03:56:32;;;;;;;26.23;19.40;;;1.30;94.60;;;;;;6111699;23;20217;-73
2022/03/10 03:58:59;;;;;;;24.52;17.50;;;1.30;95.00;;;;;;6108320;23;20242;-72
2022/03/10 04:01:26;;;;;;;27.38;18.73;;;1.20;95.30;;;;;;6106830;23;20749;-72
2022/03/10 04:03:54;;;;;;;28.65;19.55;;;1.20;95.70;;;;;;6119380;23;20184;-72
2022/03/10 04:06:22;;;;;;;27.00;19.42;;;1.10;95.90;;;;;;6111885;23;20215;-72
2022/03/10 04:08:49;;;;;;;26.75;19.35;;;1.00;96.20;;;;;;6104968;23;20188;-72
2022/03/10 04:11:16;;;;;;;29.50;19.60;;;1.00;96.60;;;;;;6104153;23;20665;-72
2022/03/10 04:13:43;;;;;;;28.70;19.80;;;1.00;97.00;;;;;;6119938;23;20415;-72
2022/03/10 04:16:11;;;;;;;29.92;21.35;;;1.00;97.20;;;;;;6105836;23;20216;-72
2022/03/10 04:18:38;;;;;;;23.92;19.27;;;0.90;97.30;;;;;;6101157;23;20184;-72
2022/03/10 04:21:04;;;;;;;30.58;20.58;;;0.90;97.40;;;;;;6104788;23;20574;-72
2022/03/10 04:23:33;;;;;;;29.73;19.45;;;0.90;97.60;;;;;;6117814;23;20225;-72
2022/03/10 04:26:01;;;;;;;28.23;18.58;;;0.90;97.70;;;;;;6112851;23;20754;-72
2022/03/10 04:28:28;;;;;;;26.10;18.63;;;0.80;97.80;;;;;;6115229;23;20188;-72
2022/03/10 04:30:55;;;;;;;27.15;18.30;;;0.80;97.90;;;;;;6118806;23;20189;-71
2022/03/10 04:33:22;;;;;;;24.73;18.15;;;0.80;98.10;;;;;;6103442;23;20607;-70
2022/03/10 04:35:51;;;;;;;29.23;19.95;;;0.80;98.20;;;;;;6108304;23;20216;-70
2022/03/10 04:38:19;;;;;;;28.55;19.92;;;0.70;98.40;;;;;;6103565;23;20196;-73
2022/03/10 04:40:47;;;;;;;29.05;19.73;;;0.70;98.60;;;;;;6102954;23;20182;-72
2022/03/10 04:43:14;;;;;;;28.33;19.60;;;0.70;98.80;;;;;;6110392;23;20223;-71
2022/03/10 04:45:42;;;;;;;25.88;19.70;;;0.60;98.90;;;;;;6117385;23;20219;-71
2022/03/10 04:48:09;;;;;;;29.13;20.73;;;0.60;99.20;;;;;;6099857;23;20185;-73
2022/03/10 04:50:36;;;;;;;30.67;19.42;;;0.60;99.40;;;;;;6113831;23;20570;-72
2022/03/10 04:53:04;;;;;;;28.38;20.63;;;0.50;99.60;;;;;;6107750;23;20280;-71
2022/03/10 04:55:32;;;;;;;28.48;19.92;;;0.50;99.80;;;;;;6102275;23;20216;-72
2022/03/10 04:58:00;;;;;;;28.45;19.23;;;0.50;99.80;;;;;;6110655;23;20275;-72
2022/03/10 05:00:28;;;;;;;25.88;18.92;;;0.40;99.90;;;;;;6113967;23;20196;-72
2022/03/10 05:02:54;;;;;;;27.38;19.95;;;0.40;99.90;;;;;;6099182;23;20567;-72
2022/03/10 05:05:21;;;;;;;26.17;19.63;;;0.40;99.90;;;;;;6112988;23;20218;-72
2022/03/10 05:07:48;;;;;;;27.45;19.55;;;0.40;99.90;;;;;;6117015;23;20190;-72
2022/03/10 05:10:17;;;;;;;27.27;19.70;;;0.30;99.90;;;;;;6099079;23;20184;-72
2022/03/10 05:12:45;;;;;;;28.17;20.17;;;0.30;99.90;;;;;;6107574;23;20191;-73
2022/03/10 05:15:13;;;;;;;26.42;20.02;;;0.30;99.90;;;;;;6105938;23;20282;-72
2022/03/10 05:17:41;;;;;;;28.95;20.40;;;0.30;99.90;;;;;;6116646;23;20197;-71
2022/03/10 05:20:09;;;;;;;27.65;19.70;;;0.30;99.90;;;;;;6109004;23;20197;-72
2022/03/10 05:22:45;;;;;;;26.33;19.33;;;0.30;99.90;;;;;;6105565;23;20231;-71
2022/03/10 05:25:13;;;;;;;30.40;20.35;;;0.20;99.90;;;;;;6102353;23;20249;-71
2022/03/10 05:27:40;;;;;;;29.60;20.15;;;0.20;99.90;;;;;;6100508;23;20198;-71
2022/03/10 05:30:08;;;;;;;24.05;18.98;;;0.10;99.90;;;;;;6104478;23;20194;-71
2022/03/10 05:32:36;;;;;;;24.52;19.25;;;0.10;99.90;;;;;;6104211;23;20192;-71
2022/03/10 05:35:04;;;;;;;26.85;19.42;;;0.10;99.90;;;;;;6109643;23;20253;-71
2022/03/10 05:37:31;;;;;;;27.40;19.77;;;0.00;99.90;;;;;;6110943;23;20191;-72
2022/03/10 05:39:58;;;;;;;26.98;19.00;;;0.00;99.90;;;;;;6106457;23;20184;-72
2022/03/10 05:42:25;;;;;;;27.23;19.33;;;0.00;99.90;;;;;;6112284;23;20230;-72
2022/03/10 05:44:52;;;;;;;25.08;18.67;;;0.00;99.90;;;;;;6109546;23;20254;-70
2022/03/10 05:47:18;;;;;;;23.35;18.05;;;-0.10;99.90;;;;;;6110290;23;20254;-70
2022/03/10 05:49:49;;;;;;;25.83;19.08;;;0.00;99.90;;;;;;6102141;23;20191;-73
2022/03/10 05:52:16;;;;;;;26.95;18.23;;;0.00;99.90;;;;;;6111737;23;20192;-76
2022/03/10 05:54:43;;;;;;;31.42;20.15;;;0.00;99.90;;;;;;6108614;23;20211;-72
2022/03/10 05:57:10;;;;;;;23.58;18.67;;;0.00;99.90;;;;;;6110815;23;20279;-72
2022/03/10 05:59:37;;;;;;;27.80;18.15;;;0.00;99.90;;;;;;6107345;23;20668;-73
2022/03/10 06:02:04;;;;;;;23.73;17.50;;;0.00;99.90;;;;;;6112391;23;20215;-72
2022/03/10 06:04:31;;;;;;;26.83;18.90;;;0.10;99.90;;;;;;6111330;23;21201;-72
2022/03/10 06:07:00;;;;;;;25.50;18.98;;;0.20;99.90;;;;;;6107017;23;20190;-72
2022/03/10 06:09:27;;;;;;;27.60;17.88;;;0.30;99.90;;;;;;6106589;23;20184;-71
2022/03/10 06:11:53;;;;;;;23.73;17.15;;;0.50;99.90;;;;;;6112191;23;20585;-72
2022/03/10 06:14:20;;;;;;;20.95;16.38;;;0.70;99.90;;;;;;6104405;23;20186;-71
2022/03/10 06:16:47;;;;;;;22.83;17.35;;;0.90;99.80;;;;;;6098941;23;20192;-72
2022/03/10 06:19:15;;;;;;;23.05;17.42;;;1.30;99.20;;;;;;6111213;23;20873;-71
2022/03/10 06:21:42;;;;;;;22.75;17.88;;;1.60;98.40;;;;;;6103964;23;20189;-72
2022/03/10 06:24:11;;;;;;;22.85;16.45;;;1.90;97.70;;;;;;6115545;23;20187;-72
2022/03/10 06:26:38;;;;;;;24.70;17.30;;;2.10;96.80;;;;;;6100852;23;20212;-72
2022/03/10 06:29:05;;;;;;;22.23;17.60;;;2.40;96.10;;;;;;6115448;23;20190;-71
2022/03/10 06:31:33;;;;;;;25.25;17.83;;;2.60;95.50;;;;;;6106351;23;20193;-73
2022/03/10 06:34:00;;;;;;;23.90;17.63;;;2.80;94.70;;;;;;6116400;23;20193;-72
2022/03/10 06:36:27;;;;;;;23.63;17.33;;;3.00;94.20;;;;;;6112927;23;20217;-72
2022/03/10 06:38:54;;;;;;;22.45;17.38;;;3.30;93.70;;;;;;6098376;23;20183;-71
2022/03/10 06:41:23;;;;;;;23.65;17.30;;;3.50;92.90;;;;;;6110859;23;20266;-72
2022/03/10 06:43:50;;;;;;;22.60;17.92;;;3.80;92.30;;;;;;6113531;23;20210;-72
2022/03/10 06:46:17;;;;;;;22.13;17.95;;;4.10;91.30;;;;;;6116699;23;20207;-72
2022/03/10 06:48:44;;;;;;;23.10;18.08;;;4.30;90.80;;;;;;6114930;23;20222;-72
2022/03/10 06:51:11;;;;;;;22.85;18.35;;;4.60;90.30;;;;;;6112727;23;20190;-72
2022/03/10 06:53:38;;;;;;;24.90;20.45;;;4.80;89.10;;;;;;6107413;23;20266;-71
2022/03/10 06:56:05;;;;;;;24.23;18.67;;;5.20;87.60;;;;;;6102597;23;20778;-73
2022/03/10 06:58:33;;;;;;;24.13;18.70;;;5.50;85.50;;;;;;6109774;23;20819;-73
2022/03/10 07:01:00;;;;;;;23.92;19.67;;;5.80;84.30;;;;;;6101333;23;20184;-71
2022/03/10 07:03:27;;;;;;;22.33;19.45;;;6.10;83.40;;;;;;6114772;23;20245;-72
2022/03/10 07:05:55;;;;;;;24.73;19.98;;;6.50;81.90;;;;;;6101966;23;20207;-72
2022/03/10 07:08:22;;;;;;;28.35;20.80;;;6.80;79.40;;;;;;6117573;23;20196;-72
2022/03/10 07:10:49;;;;;;;24.83;18.95;;;7.00;78.90;;;;;;6111982;23;20293;-73
2022/03/10 07:13:15;;;;;;;25.10;19.60;;;7.40;77.80;;;;;;6115325;23;20192;-72
2022/03/10 07:15:44;;;;;;;22.20;18.45;;;7.80;75.40;;;;;;6111589;23;20209;-72
2022/03/10 07:18:11;;;;;;;23.45;19.50;;;8.20;74.30;;;;;;6106374;23;20191;-72
2022/03/10 07:20:37;;;;;;;23.65;18.55;;;8.60;72.20;;;;;;6099909;23;20208;-71
2022/03/10 07:23:04;;;;;;;24.33;19.13;;;9.00;71.00;;;;;;6095539;23;20266;-72
2022/03/10 07:25:31;;;;;;;23.80;19.20;;;9.40;69.10;;;;;;6117588;23;20205;-72
2022/03/10 07:27:58;;;;;;;23.20;19.20;;;9.70;67.70;;;;;;6117069;23;20205;-71
2022/03/10 07:30:25;;;;;;;21.15;18.95;;;10.20;64.70;;;;;;6120398;23;20292;-71
2022/03/10 07:32:54;;;;;;;22.25;19.88;;;10.50;63.90;;;;;;6118176;23;20190;-71
2022/03/10 07:35:21;;;;;;;25.02;20.25;;;10.90;62.50;;;;;;6120700;23;20259;-71
2022/03/10 07:37:49;;;;;;;22.05;19.15;;;11.20;61.20;;;;;;6119238;23;20188;-71
2022/03/10 07:40:16;;;;;;;20.88;18.50;;;11.50;59.70;;;;;;6120341;23;20273;-71
2022/03/10 07:42:43;;;;;;;26.08;20.02;;;11.70;58.60;;;;;;6117486;23;20214;-72
2022/03/10 07:45:11;;;;;;;20.80;18.60;;;11.60;57.70;;;;;;6120137;23;20226;-72
2022/03/10 07:47:39;;;;;;;21.75;19.00;;;11.70;58.00;;;;;;6118788;23;20190;-72
2022/03/10 07:50:09;;;;;;;21.70;19.40;;;11.70;58.20;;;;;;6119751;23;20691;-72
2022/03/10 07:52:36;;;;;;;22.40;18.38;;;11.80;57.60;;;;;;6110488;23;20279;-72
2022/03/10 07:55:06;;;;;;;23.88;19.50;;;12.00;56.90;;;;;;6120538;23;20203;-72
2022/03/10 07:57:34;;;;;;;26.13;20.73;;;12.30;57.20;;;;;;6105725;23;20241;-71
2022/03/10 08:00:00;;;;;;;20.63;17.85;;;12.60;56.10;;;;;;6119489;23;20643;-72
2022/03/10 08:02:27;;;;;;;21.67;18.63;;;12.90;55.70;;;;;;6118002;23;20252;-72
2022/03/10 08:04:54;;;;;;;22.35;18.33;;;13.00;55.20;;;;;;6111857;23;20281;-72
2022/03/10 08:07:22;;;;;;;21.00;18.15;;;13.00;54.20;;;;;;6116905;23;20197;-72
2022/03/10 08:09:50;;;;;;;20.60;18.27;;;13.10;53.50;;;;;;6119969;23;20209;-72
2022/03/10 08:12:17;;;;;;;20.33;18.20;;;13.40;53.60;;;;;;6110643;23;20226;-72
2022/03/10 08:14:44;;;;;;;19.25;17.27;;;13.50;53.50;;;;;;6119687;23;20282;-72
2022/03/10 08:17:11;;;;;;;18.50;16.40;;;14.00;52.20;;;;;;6116684;23;20278;-72
2022/03/10 08:19:37;;;;;;;21.98;17.73;;;14.40;52.40;;;;;;6091115;23;20434;-72
2022/03/10 08:22:08;;;;;;;20.03;16.67;;;14.80;51.50;;;;;;6101956;23;20199;-72
2022/03/10 08:24:38;;;;;;;19.20;17.03;;;15.00;51.00;;;;;;6102716;23;20471;-74
2022/03/10 08:27:06;;;;;;;19.10;17.20;;;15.60;50.70;;;;;;6102330;23;20965;-73
2022/03/10 08:29:32;;;;;;;18.83;16.93;;;15.70;49.50;;;;;;6115927;23;20437;-73
2022/03/10 08:32:00;;;;;;;17.67;15.87;;;15.80;48.80;;;;;;6113728;23;20440;-73
2022/03/10 08:34:26;;;;;;;17.80;16.00;;;15.90;48.40;;;;;;6099621;23;20475;-73
2022/03/10 08:36:53;;;;;;;19.60;15.90;;;16.20;48.00;;;;;;6105614;23;20444;-73
2022/03/10 08:39:20;;;;;;;18.67;16.77;;;16.50;47.80;;;;;;6109680;23;20491;-74
2022/03/10 08:41:49;;;;;;;23.93;18.33;;;16.90;48.10;;;;;;6117140;23;20954;-73
2022/03/10 08:44:16;;;;;;;18.13;16.00;;;17.50;47.70;;;;;;6109015;23;20540;-73
2022/03/10 08:46:43;;;;;;;18.23;16.33;;;18.20;47.20;;;;;;6111346;23;20437;-74
2022/03/10 08:49:11;;;;;;;17.67;15.83;;;18.60;46.00;;;;;;6112345;23;20440;-77
2022/03/10 08:51:38;;;;;;;16.53;14.93;;;18.70;44.70;;;;;;6108783;23;20434;-74
2022/03/10 08:54:05;;;;;;;17.53;14.90;;;18.40;44.80;;;;;;6107052;23;20516;-74
2022/03/10 08:56:31;;;;;;;15.50;13.80;;;18.10;45.20;;;;;;6116531;23;20510;-74
2022/03/10 08:59:00;;;;;;;15.47;14.03;;;18.00;45.50;;;;;;6114940;23;20443;-74
2022/03/10 09:01:27;;;;;;;15.70;14.20;;;18.00;45.40;;;;;;6115229;23;20891;-74
2022/03/10 09:03:54;;;;;;;15.80;14.10;;;17.80;45.00;;;;;;6091457;23;20811;-74
2022/03/10 09:06:20;;;;;;;15.47;13.87;;;17.70;45.60;;;;;;6108516;23;20481;-74
2022/03/10 09:08:49;;;;;;;14.07;12.67;;;17.40;45.50;;;;;;6110700;23;20841;-74
2022/03/10 09:11:16;;;;;;;12.73;11.20;;;17.00;46.20;;;;;;6113625;23;20437;-74
2022/03/10 09:13:48;;;;;;;13.67;12.33;;;17.00;46.00;;;;;;6111598;23;20986;-74
2022/03/10 09:16:16;;;;;;;13.20;11.80;;;17.50;45.60;;;;;;6113622;23;20459;-74
2022/03/10 09:18:45;;;;;;;14.40;12.30;;;17.50;45.60;;;;;;6112380;23;20849;-73
2022/03/10 09:21:11;;;;;;;13.40;11.80;;;17.70;45.90;;;;;;6112431;23;20469;-74
2022/03/10 09:23:39;;;;;;;12.17;10.67;;;17.90;46.00;;;;;;6107686;23;20457;-74
2022/03/10 09:26:06;;;;;;;11.50;10.40;;;18.10;44.80;;;;;;6113864;23;20461;-75
2022/03/10 09:28:33;;;;;;;12.43;11.33;;;17.80;44.30;;;;;;6118827;23;20445;-74
2022/03/10 09:31:00;;;;;;;13.60;11.57;;;17.80;45.70;;;;;;6112848;23;20437;-74
2022/03/10 09:33:29;;;;;;;11.60;10.47;;;17.90;45.30;;;;;;6107186;23;20516;-74
2022/03/10 09:35:56;;;;;;;10.07;9.03;;;18.10;45.10;;;;;;6109960;23;20463;-74
2022/03/10 09:38:23;;;;;;;10.30;9.20;;;18.20;44.40;;;;;;6108906;23;20455;-75
2022/03/10 09:40:53;;;;;;;10.47;9.57;;;17.90;44.20;;;;;;6113285;23;20460;-74
2022/03/10 09:43:22;;;;;;;9.90;9.00;;;17.70;44.40;;;;;;6111079;23;20966;-74
2022/03/10 09:45:51;;;;;;;10.80;9.80;;;17.80;44.50;;;;;;6109335;23;20498;-74
2022/03/10 09:48:18;;;;;;;11.53;10.33;;;17.90;44.80;;;;;;6116602;23;20442;-74
2022/03/10 09:50:49;;;;;;;10.80;9.70;;;18.20;44.90;;;;;;6111010;23;20998;-74
2022/03/10 09:53:18;;;;;;;9.93;8.97;;;18.80;43.60;;;;;;6113050;23;20448;-74
2022/03/10 09:55:45;;;;;;;10.07;9.10;;;18.80;43.50;;;;;;6113051;23;20465;-74
2022/03/10 09:58:13;;;;;;;10.43;9.40;;;18.80;43.70;;;;;;6118029;23;20437;-74
2022/03/10 10:00:40;;;;;;;10.67;9.77;;;18.80;43.50;;;;;;6102999;23;20437;-75
2022/03/10 10:03:07;;;;;;;10.40;9.40;;;19.00;43.60;;;;;;6099087;23;20495;-75
2022/03/10 10:05:39;;;;;;;11.40;8.23;;;19.00;43.10;;;;;;6110049;23;20468;-75
2022/03/10 10:08:09;;;;;;;9.17;8.20;;;19.30;43.90;;;;;;6104269;23;21227;-75
2022/03/10 10:10:39;;;;;;;10.03;8.87;;;20.30;43.80;;;;;;6108856;23;21043;-74
2022/03/10 10:13:07;;;;;;;8.97;8.10;;;20.90;42.50;;;;;;6115142;23;20989;-75
2022/03/10 10:15:39;;;;;;;8.00;7.33;;;21.00;41.20;;;;;;6110769;23;20453;-74
2022/03/10 10:18:13;;;;;;;8.50;7.80;;;20.80;41.10;;;;;;6109522;23;20452;-74
2022/03/10 10:20:47;;;;;;;8.23;7.53;;;21.00;41.00;;;;;;6110886;23;20576;-75
2022/03/10 10:23:20;;;;;;;8.23;7.50;;;20.70;40.60;;;;;;6108127;23;20462;-75
2022/03/10 10:25:55;;;;;;;7.73;7.03;;;20.40;40.70;;;;;;6100286;23;20464;-75
2022/03/10 10:28:28;;;;;;;8.10;7.40;;;20.60;41.10;;;;;;6093838;23;20556;-75
2022/03/10 10:30:57;;;;;;;7.33;6.63;;;20.90;41.00;;;;;;6116577;23;20450;-75
2022/03/10 10:33:25;;;;;;;8.13;7.17;;;21.00;40.60;;;;;;6095956;23;20442;-75
2022/03/10 10:35:53;;;;;;;6.53;5.97;;;21.00;39.80;;;;;;6110859;23;20458;-75
2022/03/10 10:38:31;;;;;;;6.17;5.57;;;20.70;39.50;;;;;;6097173;23;20463;-75
2022/03/10 10:41:23;;;;;;;6.20;5.50;;;20.80;39.60;;;;;;6113065;23;20440;-75
2022/03/10 10:43:52;;;;;;;6.57;5.90;;;20.80;39.00;;;;;;6101128;23;20462;-76
2022/03/10 10:46:24;;;;;;;5.83;5.20;;;20.90;39.20;;;;;;6097070;23;20477;-75
2022/03/10 10:48:51;;;;;;;5.33;4.83;;;20.70;38.80;;;;;;6099477;23;20770;-75
2022/03/10 10:51:30;;;;;;;5.60;5.10;;;20.40;38.60;;;;;;6112477;23;20469;-75
2022/03/10 10:54:00;;;;;;;5.40;4.90;;;19.80;38.90;;;;;;6110441;23;20445;-75
2022/03/10 10:56:28;;;;;;;5.10;4.70;;;19.20;39.60;;;;;;6113547;23;20445;-75
2022/03/10 10:58:55;;;;;;;4.70;4.10;;;19.30;39.20;;;;;;6098639;23;20442;-75
2022/03/10 11:01:36;;;;;;;4.90;4.30;;;18.90;39.40;;;;;;6107993;23;20434;-75
2022/03/10 11:04:05;;;;;;;4.33;3.90;;;19.00;39.30;;;;;;6102653;23;20994;-75
2022/03/10 11:06:34;;;;;;;4.27;3.87;;;19.00;39.20;;;;;;6107866;23;20441;-75
2022/03/10 11:09:03;;;;;;;4.03;3.67;;;18.80;39.30;;;;;;6106257;23;20479;-75
2022/03/10 11:11:31;;;;;;;4.60;4.20;;;19.20;39.80;;;;;;6106247;23;20517;-76
2022/03/10 11:13:58;;;;;;;3.70;3.40;;;19.40;38.90;;;;;;6106820;23;20539;-75
2022/03/10 11:16:26;;;;;;;4.37;3.97;;;19.60;38.80;;;;;;6105481;23;20453;-75
2022/03/10 11:18:54;;;;;;;4.37;3.97;;;19.70;38.40;;;;;;6103861;23;20445;-75
2022/03/10 11:21:46;;;;;;;4.17;3.87;;;19.50;38.00;;;;;;6114755;23;20461;-74
2022/03/10 11:24:54;;;;;;;4.40;4.00;;;19.30;38.20;;;;;;6108857;23;20491;-76
2022/03/10 11:27:25;;;;;;;3.97;3.67;;;19.30;38.30;;;;;;5999382;23;20450;-75
2022/03/10 11:29:55;;;;;;;3.87;3.57;;;18.90;38.40;;;;;;6103133;23;20438;-81
2022/03/10 11:32:27;;;;;;;3.90;3.60;;;18.80;38.00;;;;;;6105498;23;20487;-75
2022/03/10 11:34:56;;;;;;;4.07;3.67;;;18.60;37.90;;;;;;6096174;23;20575;-75
2022/03/10 11:37:36;;;;;;;3.80;3.50;;;18.70;38.50;;;;;;6100842;23;20487;-75
2022/03/10 11:40:06;;;;;;;5.33;4.40;;;18.90;38.60;;;;;;6105739;23;20436;-75
2022/03/10 11:42:35;;;;;;;4.23;3.87;;;19.30;38.40;;;;;;6113347;23;20937;-75
2022/03/10 11:45:10;;;;;;;3.83;3.43;;;19.40;37.90;;;;;;6108597;23;21036;-75
2022/03/10 11:47:37;;;;;;;4.00;3.70;;;19.40;37.40;;;;;;6110317;23;20874;-75
2022/03/10 11:50:26;;;;;;;4.00;3.70;;;19.70;37.60;;;;;;6114673;23;20769;-76
2022/03/10 11:52:57;;;;;;;3.93;3.63;;;20.30;37.20;;;;;;6107757;23;20789;-76
2022/03/10 11:55:39;;;;;;;3.23;3.00;;;20.90;37.00;;;;;;6094870;23;20500;-75
2022/03/10 11:58:07;;;;;;;3.20;3.00;;;20.70;35.60;;;;;;6097531;23;20446;-76
2022/03/10 12:00:51;;;;;;;4.10;3.80;;;20.60;36.10;;;;;;6099751;23;20462;-75
2022/03/10 12:03:21;;;;;;;3.60;3.30;;;20.50;36.50;;;;;;6101092;23;20443;-75
2022/03/10 12:05:52;;;;;;;3.73;3.43;;;20.50;36.30;;;;;;6104611;23;20463;-76
2022/03/10 12:08:20;;;;;;;3.73;3.43;;;20.70;36.50;;;;;;6103278;23;20918;-75
2022/03/10 12:10:48;;;;;;;3.80;3.50;;;20.40;35.90;;;;;;6103345;23;20499;-75
2022/03/10 12:13:28;;;;;;;2.87;2.57;;;20.40;35.80;;;;;;6105203;23;20972;-75
2022/03/10 12:15:56;;;;;;;3.53;3.23;;;20.10;35.40;;;;;;6108224;23;20561;-75
2022/03/10 12:18:40;;;;;;;3.50;2.97;;;20.20;36.00;;;;;;6110976;23;20529;-75
2022/03/10 12:21:18;;;;;;;3.50;3.00;;;20.10;35.90;;;;;;6112889;23;20442;-76
2022/03/10 12:23:53;;;;;;;3.30;3.07;;;20.00;34.90;;;;;;6116589;23;20468;-76
2022/03/10 12:26:28;;;;;;;3.90;3.33;;;19.90;35.70;;;;;;6090685;23;20426;-76
2022/03/10 12:28:57;;;;;;;4.20;3.50;;;19.90;35.70;;;;;;6099682;23;20532;-77
2022/03/10 12:31:27;;;;;;;3.53;3.23;;;19.80;35.50;;;;;;6099803;23;20441;-77
2022/03/10 12:33:56;;;;;;;3.23;3.00;;;19.80;35.50;;;;;;6105470;23;20473;-77
2022/03/10 12:36:32;;;;;;;4.60;3.70;;;20.30;36.40;;;;;;6106640;23;20431;-77
2022/03/10 12:39:00;;;;;;;5.17;3.43;;;20.70;35.50;;;;;;6113422;23;20451;-77
2022/03/10 12:41:30;;;;;;;4.40;3.40;;;20.60;35.20;;;;;;6103874;23;20515;-77
2022/03/10 12:43:58;;;;;;;4.40;4.00;;;20.80;34.50;;;;;;6110939;23;20483;-77
2022/03/10 12:46:26;;;;;;;3.97;3.67;;;21.00;35.30;;;;;;6109078;23;20778;-77
2022/03/10 12:49:02;;;;;;;4.17;3.77;;;20.80;33.90;;;;;;6112659;23;20437;-76
2022/03/10 12:51:33;;;;;;;4.50;4.10;;;20.80;34.20;;;;;;6109088;23;20435;-77